Torbay, Canada
Current Conditions -  °F | °C
As of 11:00 AM on Thursday 29 Jan 2015 (Local Time) from CYYT Reporting Station
Broken Clouds Broken Clouds  
Wind Chill: 24°   Ceiling: 18000
Heat Index: 36°   Visibility: 15mi
Dew Point: 32°   Wind: 24mph
Humidity: 87%   Direction: 260°W
Pressure: 29.92"   Gusts: 37mph
Location:  47.66°N, 52.73°W
Report Text: CYYT 291400Z 26021G32KT 15SM FEW018 BKN180 02/00 A2992 RMK SC2AC4 SLP138
Loading
Personal Weather Stations






























Interactive Weather Map New forecast layout! Learn more

10-Day Weather Forecast

Advertisements
Track Severe Weather on mobile